^^
Your Local Weather - Clay, NY Station Historical Data
Daily Summary for January 12, 2018 Units:  Metric    English   Both
« Previous Day
Next Day »
Daily Weekly Monthly Yearly Custom
  High: Low: Average:
Temperature: 15.2 °C -8 °C 7.6 °C
Dew Point: 14.4 °C -9.2 °C 6.3 °C
Humidity: 95% 87% 92%
Wind Speed: 12.9km/h 0km/h 5.6km/h
Wind Gust: 22.5km/h - -
Wind- - SW
Pressure: 1011.7 hPa 999.5 hPa -
Precipitation: 30.73 mm    
Historical Graphs
 
 
Tabular Data for January 12, 2018
Time Temperature Dew Point Pressure Wind Wind Speed Wind Gust Humidity Rainfall Rate (Hourly) solar
00:02 10.9 °C 9 °C 1011.7 hPa South 4.8 km/h 6.4 km/h 88% 4.32 mm 0 W/m2
00:08 11.1 °C 9.3 °C 1011.7 hPa SSE 8 km/h 8 km/h 89% 2.03 mm 0 W/m2
00:20 11.2 °C 9.4 °C 1011.7 hPa South 6.4 km/h 14.5 km/h 89% 2.79 mm 0 W/m2
00:26 11.3 °C 9.6 °C 1011.7 hPa SSW 4.8 km/h 14.5 km/h 89% 4.06 mm 0 W/m2
00:32 11.5 °C 9.7 °C 1011.7 hPa SSE 3.2 km/h 6.4 km/h 89% 2.03 mm 0 W/m2
00:38 11.7 °C 9.9 °C 1011.4 hPa South 6.4 km/h 9.7 km/h 89% 1.27 mm 0 W/m2
00:43 11.9 °C 10.2 °C 1011.1 hPa SSE 6.4 km/h 9.7 km/h 89% 1.27 mm 0 W/m2
00:50 12.2 °C 10.4 °C 1011.1 hPa South 8 km/h 8 km/h 89% 1.02 mm 0 W/m2
00:55 12.4 °C 10.4 °C 1010.7 hPa SE 9.7 km/h 11.3 km/h 88% 0 mm 0 W/m2
01:02 12.4 °C 10.4 °C 1010.7 hPa South 9.7 km/h 9.7 km/h 88% 0 mm 0 W/m2
01:08 12.4 °C 10.4 °C 1010.7 hPa South 6.4 km/h 9.7 km/h 88% 0 mm 0 W/m2
01:14 12.5 °C 10.4 °C 1010.7 hPa South 6.4 km/h 6.4 km/h 87% 1.02 mm 0 W/m2
01:19 12.5 °C 10.4 °C 1010.4 hPa SW 8 km/h 8 km/h 87% 1.02 mm 0 W/m2
01:26 12.6 °C 10.4 °C 1010.4 hPa South 6.4 km/h 8 km/h 87% 1.02 mm 0 W/m2
01:32 12.5 °C 10.4 °C 1010.4 hPa SW 6.4 km/h 6.4 km/h 87% 0 mm 0 W/m2
01:44 12.5 °C 10.4 °C 1010.4 hPa SSW 4.8 km/h 6.4 km/h 87% 0 mm 0 W/m2
01:49 12.5 °C 10.6 °C 1010.4 hPa South 4.8 km/h 4.8 km/h 88% 1.27 mm 0 W/m2
02:02 12.6 °C 10.5 °C 1010 hPa SSE 6.4 km/h 11.3 km/h 87% 1.52 mm 0 W/m2
02:08 12.4 °C 10.3 °C 1010 hPa SSW 6.4 km/h 11.3 km/h 87% 1.52 mm 0 W/m2
02:19 12.6 °C 10.7 °C 1009.7 hPa SE 6.4 km/h 11.3 km/h 88% 0 mm 0 W/m2
02:30 12.6 °C 10.4 °C 1009.7 hPa SSE 6.4 km/h 9.7 km/h 87% 3.81 mm 0 W/m2
02:36 12.6 °C 10.7 °C 1009.7 hPa SSE 6.4 km/h 9.7 km/h 88% 4.06 mm 0 W/m2
02:43 12.7 °C 10.7 °C 1009.7 hPa SSE 8 km/h 8 km/h 88% 2.54 mm 0 W/m2
02:49 12.7 °C 10.8 °C 1009.4 hPa SSE 8 km/h 16.1 km/h 88% 2.54 mm 0 W/m2
02:56 12.7 °C 10.8 °C 1009.4 hPa South 8 km/h 16.1 km/h 88% 1.27 mm 0 W/m2
03:02 12.7 °C 10.8 °C 1009 hPa South 8 km/h 9.7 km/h 88% 1.02 mm 0 W/m2
03:08 12.6 °C 10.7 °C 1009.4 hPa South 8 km/h 9.7 km/h 88% 2.29 mm 0 W/m2
03:13 12.6 °C 10.8 °C 1009 hPa South 6.4 km/h 8 km/h 89% 2.79 mm 0 W/m2
03:20 12.7 °C 10.9 °C 1009.4 hPa SW 8 km/h 12.9 km/h 89% 2.79 mm 0 W/m2
03:26 12.7 °C 10.9 °C 1009 hPa South 9.7 km/h 12.9 km/h 89% 2.54 mm 0 W/m2
03:32 12.6 °C 10.8 °C 1009 hPa SSE 8 km/h 8 km/h 89% 2.03 mm 0 W/m2
03:46 12.4 °C 10.6 °C 1008 hPa SSE 9.7 km/h 12.9 km/h 89% 1.02 mm 0 W/m2
03:52 12.4 °C 10.8 °C 1008 hPa South 9.7 km/h 9.7 km/h 90% 0 mm 0 W/m2
03:58 12.6 °C 11 °C 1008 hPa South 9.7 km/h 9.7 km/h 90% 0 mm 0 W/m2
04:04 12.8 °C 11 °C 1008 hPa SE 8 km/h 9.7 km/h 89% 0 mm 0 W/m2
04:10 12.8 °C 11 °C 1008 hPa South 8 km/h 8 km/h 89% 0 mm 0 W/m2
04:15 12.8 °C 11.1 °C 1008 hPa SSW 6.4 km/h 9.7 km/h 89% 0 mm 0 W/m2
04:22 13 °C 11.2 °C 1008.4 hPa SSW 6.4 km/h 8 km/h 89% 0 mm 0 W/m2
04:28 13.1 °C 11.1 °C 1008 hPa SSE 6.4 km/h 9.7 km/h 88% 0 mm 0 W/m2
04:34 13 °C 11.1 °C 1008 hPa SSW 6.4 km/h 11.3 km/h 88% 0 mm 0 W/m2
04:39 13.1 °C 11.1 °C 1007.7 hPa South 8 km/h 11.3 km/h 88% 0 mm 0 W/m2
04:46 13.2 °C 11.2 °C 1008 hPa SSW 9.7 km/h 19.3 km/h 88% 0 mm 0 W/m2
04:52 13.2 °C 11.2 °C 1008 hPa SSE 9.7 km/h 9.7 km/h 88% 0 mm 0 W/m2
04:58 13.3 °C 11.2 °C 1008 hPa SSE 9.7 km/h 9.7 km/h 87% 0 mm 0 W/m2
05:03 13.3 °C 11.2 °C 1008 hPa South 8 km/h 9.7 km/h 87% 0 mm 0 W/m2
05:14 13.4 °C 11.3 °C 1008 hPa South 8 km/h 8 km/h 87% 0 mm 0 W/m2
05:20 13.2 °C 11.3 °C 1008 hPa South 8 km/h 8 km/h 88% 4.06 mm 0 W/m2
05:25 13.1 °C 11.1 °C 1007.7 hPa South 4.8 km/h 11.3 km/h 88% 2.03 mm 0 W/m2
05:32 12.7 °C 10.8 °C 1007.7 hPa SSE 3.2 km/h 4.8 km/h 88% 2.54 mm 0 W/m2
05:38 12.5 °C 10.7 °C 1007.7 hPa SSE 4.8 km/h 9.7 km/h 89% 8.13 mm 0 W/m2
05:44 12.5 °C 10.9 °C 1007.7 hPa South 4.8 km/h 6.4 km/h 90% 5.33 mm 0 W/m2
05:49 12.6 °C 10.9 °C 1007.3 hPa SE 4.8 km/h 6.4 km/h 90% 9.4 mm 0 W/m2
06:02 12.6 °C 11.2 °C 1007 hPa South 1.6 km/h 3.2 km/h 91% 6.86 mm 0 W/m2
06:08 12.6 °C 11.2 °C 1007.3 hPa Calm   3.2 km/h 91% 9.91 mm 0 W/m2
06:13 12.4 °C 11 °C 1007.3 hPa Calm     91% 7.62 mm 0 W/m2
06:19 11.2 °C 9.6 °C 1007 hPa Calm     90% 11.94 mm 0 W/m2
06:25 11.1 °C 9.7 °C 1007 hPa Calm     91% 21.59 mm 0 W/m2
06:35 11.2 °C 9.9 °C 1006.7 hPa South 1.6 km/h 1.6 km/h 92% 17.02 mm 0 W/m2
06:42 10.9 °C 9.5 °C 1006.7 hPa South 1.6 km/h 1.6 km/h 91% 12.95 mm 0 W/m2
06:48 10.5 °C 9.3 °C 1006.7 hPa Calm   1.6 km/h 92% 19.81 mm 0 W/m2
06:54 10.4 °C 9.2 °C 1006.3 hPa Calm   3.2 km/h 92% 9.65 mm 0 W/m2
06:59 10.5 °C 9.3 °C 1006 hPa South 1.6 km/h 1.6 km/h 92% 7.87 mm 0 W/m2
07:13 11.2 °C 10.1 °C 1006 hPa Calm     93% 6.86 mm 0 W/m2
07:20 10.9 °C 9.8 °C 1005.6 hPa Calm     93% 6.86 mm 0 W/m2
07:26 10.8 °C 9.7 °C 1005.6 hPa Calm     93% 3.3 mm 0 W/m2
07:32 10.8 °C 9.7 °C 1005.6 hPa Calm     93% 2.79 mm 0 W/m2
07:38 10.3 °C 9.3 °C 1005.6 hPa Calm   1.6 km/h 93% 2.03 mm 0 W/m2
07:43 10.4 °C 9.3 °C 1005.6 hPa Calm     93% 1.52 mm 0 W/m2
07:54 10.3 °C 9.2 °C 1005.3 hPa Calm   3.2 km/h 93% 1.52 mm 0 W/m2
08:00 10.7 °C 9.6 °C 1005.3 hPa South 1.6 km/h 1.6 km/h 93% 1.27 mm 0 W/m2
08:06 10.6 °C 9.5 °C 1005.3 hPa South 1.6 km/h 1.6 km/h 93% 1.52 mm 7 W/m2
08:12 11 °C 9.9 °C 1005.3 hPa Calm   1.6 km/h 93% 2.79 mm 9 W/m2
08:18 10.9 °C 9.8 °C 1005.3 hPa Calm   1.6 km/h 93% 2.03 mm 11 W/m2
08:24 10.9 °C 9.8 °C 1005.3 hPa Calm   1.6 km/h 93% 1.78 mm 14 W/m2
08:30 11.1 °C 10.2 °C 1005.3 hPa South 1.6 km/h 3.2 km/h 94% 2.03 mm 21 W/m2
08:35 11.1 °C 10.2 °C 1005.3 hPa South 3.2 km/h 3.2 km/h 94% 3.3 mm 18 W/m2
08:42 11.1 °C 9.9 °C 1005.3 hPa South 3.2 km/h 3.2 km/h 93% 1.27 mm 23 W/m2
08:48 11.1 °C 10.1 °C 1005.3 hPa South 3.2 km/h 4.8 km/h 94% 0 mm 21 W/m2
08:54 11.1 °C 10.2 °C 1005.3 hPa South 3.2 km/h 4.8 km/h 94% 0 mm 19 W/m2
08:59 11.1 °C 10.1 °C 1005 hPa South 1.6 km/h 1.6 km/h 94% 2.29 mm 19 W/m2
09:05 11.1 °C 10.1 °C 1005 hPa South 1.6 km/h 4.8 km/h 94% 1.78 mm 23 W/m2
09:12 11.2 °C 10.2 °C 1005 hPa South 3.2 km/h 3.2 km/h 94% 1.78 mm 28 W/m2
09:18 11.1 °C 10.2 °C 1005 hPa East 3.2 km/h 6.4 km/h 94% 1.78 mm 35 W/m2
09:24 11 °C 10.1 °C 1004.6 hPa East 3.2 km/h 3.2 km/h 94% 1.27 mm 46 W/m2
09:29 11.2 °C 10.2 °C 1004.6 hPa SSE 3.2 km/h 4.8 km/h 94% 1.27 mm 47 W/m2
09:35 11.1 °C 10.2 °C 1004.6 hPa SSE 1.6 km/h 4.8 km/h 94% 1.27 mm 37 W/m2
09:42 11.1 °C 10.2 °C 1004.6 hPa Calm   3.2 km/h 94% 0 mm 28 W/m2
09:48 11.1 °C 10.1 °C 1004.3 hPa SE 1.6 km/h 3.2 km/h 94% 0 mm 26 W/m2
09:53 11 °C 10.1 °C 1004.3 hPa SE 1.6 km/h 1.6 km/h 94% 0 mm 32 W/m2
09:59 11.1 °C 10.1 °C 1004.3 hPa SE 1.6 km/h 1.6 km/h 94% 0 mm 28 W/m2
10:10 10.7 °C 9.7 °C 1003.9 hPa SE 1.6 km/h 3.2 km/h 94% 0 mm 40 W/m2
10:15 10.8 °C 9.8 °C 1003.9 hPa SE 1.6 km/h 3.2 km/h 94% 0 mm 46 W/m2
10:22 11 °C 10.1 °C 1003.6 hPa ENE 3.2 km/h 3.2 km/h 94% 0 mm 53 W/m2
10:28 11 °C 10.1 °C 1003.3 hPa East 3.2 km/h 3.2 km/h 94% 0 mm 74 W/m2
10:34 11.2 °C 10.2 °C 1003.3 hPa ENE 3.2 km/h 4.8 km/h 94% 0 mm 79 W/m2
10:40 11 °C 10.1 °C 1003.3 hPa ENE 3.2 km/h 3.2 km/h 94% 0 mm 90 W/m2
10:45 11.3 °C 10.3 °C 1003.3 hPa ENE 3.2 km/h 3.2 km/h 94% 0 mm 95 W/m2
10:52 11.3 °C 10.3 °C 1003.3 hPa ENE 3.2 km/h 3.2 km/h 94% 0 mm 81 W/m2
10:58 11.4 °C 10.5 °C 1003.3 hPa SSE 3.2 km/h 4.8 km/h 94% 0 mm 102 W/m2
11:04 11.5 °C 10.6 °C 1002.9 hPa East 3.2 km/h 4.8 km/h 94% 0 mm 90 W/m2
11:10 11.4 °C 10.5 °C 1002.6 hPa East 3.2 km/h 3.2 km/h 94% 0 mm 105 W/m2
11:15 11.2 °C 10.2 °C 1002.3 hPa ENE 3.2 km/h 6.4 km/h 94% 0 mm 113 W/m2
11:22 11.3 °C 10.6 °C 1001.9 hPa ESE 3.2 km/h 3.2 km/h 95% 0 mm 77 W/m2
11:28 11.4 °C 10.5 °C 1001.9 hPa NE 3.2 km/h 6.4 km/h 94% 0 mm 90 W/m2
11:33 11.7 °C 10.9 °C 1001.9 hPa NE 1.6 km/h 3.2 km/h 95% 0 mm 118 W/m2
11:39 11.4 °C 10.7 °C 1001.9 hPa Calm     95% 0 mm 74 W/m2
11:46 11.4 °C 10.5 °C 1001.9 hPa Calm   1.6 km/h 94% 0 mm 69 W/m2
11:52 11 °C 10.2 °C 1001.6 hPa Calm     95% 0 mm 77 W/m2
11:58 10.7 °C 9.8 °C 1001.6 hPa Calm   1.6 km/h 94% 0 mm 74 W/m2
12:03 10.7 °C 9.8 °C 1001.2 hPa Calm     94% 0 mm 65 W/m2
12:09 10.3 °C 9.4 °C 1000.9 hPa Calm   1.6 km/h 94% 0 mm 58 W/m2
12:16 10.2 °C 9.3 °C 1000.9 hPa Calm   1.6 km/h 94% 0 mm 49 W/m2
12:22 10.4 °C 9.4 °C 1000.9 hPa Calm     94% 0 mm 26 W/m2
12:33 10.9 °C 9.9 °C 1000.9 hPa Calm   1.6 km/h 94% 3.05 mm 30 W/m2
12:39 10.9 °C 10.2 °C 1000.9 hPa Calm     95% 1.52 mm 56 W/m2
12:46 11.1 °C 10.3 °C 1000.9 hPa Calm     95% 1.27 mm 46 W/m2
12:52 10.8 °C 9.9 °C 1000.6 hPa NE 1.6 km/h 3.2 km/h 94% 1.27 mm 30 W/m2
12:59 10.5 °C 9.6 °C 1000.6 hPa NE 1.6 km/h 1.6 km/h 94% 0 mm 37 W/m2
13:12 10.3 °C 9.3 °C 1000.2 hPa NE 1.6 km/h 1.6 km/h 94% 2.29 mm 58 W/m2
13:23 12.7 °C 11.9 °C 1000.2 hPa South 1.6 km/h 3.2 km/h 95% 0 mm 51 W/m2
13:30 13.7 °C 12.9 °C 999.9 hPa South 3.2 km/h 3.2 km/h 95% 0 mm 44 W/m2
13:35 13.9 °C 13.1 °C 999.9 hPa South 3.2 km/h 6.4 km/h 95% 0 mm 37 W/m2
13:48 14.4 °C 13.6 °C 999.5 hPa South 1.6 km/h 3.2 km/h 95% 0 mm 60 W/m2
14:02 14.7 °C 13.9 °C 999.9 hPa South 3.2 km/h 9.7 km/h 95% 1.27 mm 46 W/m2
14:08 14.8 °C 14 °C 999.9 hPa South 4.8 km/h 9.7 km/h 95% 1.02 mm 30 W/m2
14:13 14.8 °C 14.1 °C 999.5 hPa SSW 4.8 km/h 6.4 km/h 95% 0 mm 28 W/m2
14:28 15 °C 14.2 °C 999.5 hPa SSE 4.8 km/h 9.7 km/h 95% 0 mm 74 W/m2
14:33 15.1 °C 14.3 °C 999.5 hPa SSE 6.4 km/h 6.4 km/h 95% 0 mm 81 W/m2
14:39 15.1 °C 14.3 °C 999.5 hPa WSW 6.4 km/h 11.3 km/h 95% 0 mm 97 W/m2
14:46 15.2 °C 14.4 °C 999.5 hPa SSE 8 km/h 11.3 km/h 95% 0 mm 114 W/m2
14:52 15.2 °C 14.2 °C 999.5 hPa SSE 6.4 km/h 8 km/h 94% 0 mm 88 W/m2
14:59 15.1 °C 14.2 °C 999.5 hPa SSE 4.8 km/h 4.8 km/h 94% 0 mm 70 W/m2
15:05 14.9 °C 13.8 °C 999.9 hPa WNW 6.4 km/h 8 km/h 93% 0 mm 14 W/m2
15:12 12.4 °C 10.4 °C 1000.9 hPa WNW 8 km/h 8 km/h 88% 0 mm 19 W/m2
15:28 7.4 °C 5.7 °C 1001.2 hPa WNW 9.7 km/h 11.3 km/h 89% 0 mm 23 W/m2
15:33 6.8 °C 5.3 °C 1001.2 hPa NW 8 km/h 9.7 km/h 90% 0 mm 35 W/m2
15:39 6.4 °C 5 °C 1001.6 hPa NW 6.4 km/h 8 km/h 91% 0 mm 14 W/m2
15:50 5.9 °C 4.7 °C 1001.9 hPa WNW 8 km/h 8 km/h 92% 0 mm 9 W/m2
15:55 5.7 °C 4.5 °C 1002.3 hPa WNW 8 km/h 14.5 km/h 92% 0 mm 5 W/m2
16:02 5.6 °C 4.3 °C 1002.6 hPa WNW 6.4 km/h 8 km/h 92% 0 mm 0 W/m2
16:12 5.2 °C 4.2 °C 1003.3 hPa WNW 8 km/h 11.3 km/h 93% 0 mm 0 W/m2
16:24 4.8 °C 3.7 °C 1003.6 hPa West 8 km/h 8 km/h 93% 0 mm 0 W/m2
16:29 4.6 °C 3.6 °C 1003.6 hPa NW 9.7 km/h 9.7 km/h 93% 0 mm 0 W/m2
16:36 4.4 °C 3.4 °C 1003.9 hPa NW 8 km/h 11.3 km/h 93% 0 mm 0 W/m2
16:42 4.3 °C 3.3 °C 1004.3 hPa WSW 8 km/h 9.7 km/h 93% 0 mm 0 W/m2
16:48 4.2 °C 3.2 °C 1004.3 hPa WNW 8 km/h 9.7 km/h 93% 0 mm 0 W/m2
16:53 4.1 °C 3.1 °C 1004.6 hPa NW 6.4 km/h 8 km/h 93% 0 mm 0 W/m2
17:00 4.1 °C 3 °C 1005 hPa West 8 km/h 8 km/h 93% 0 mm 0 W/m2
17:06 3.9 °C 2.9 °C 1005 hPa West 8 km/h 11.3 km/h 93% 0 mm 0 W/m2
17:12 3.9 °C 2.8 °C 1005.3 hPa WNW 8 km/h 8 km/h 93% 0 mm 0 W/m2
17:18 3.8 °C 2.8 °C 1005.6 hPa NW 8 km/h 9.7 km/h 93% 0 mm 0 W/m2
17:24 3.7 °C 2.7 °C 1005.6 hPa NW 8 km/h 14.5 km/h 93% 0 mm 0 W/m2
17:30 3.6 °C 2.6 °C 1006 hPa West 8 km/h 9.7 km/h 93% 0 mm 0 W/m2
17:35 3.3 °C 2.3 °C 1006.3 hPa NW 8 km/h 9.7 km/h 93% 0 mm 0 W/m2
17:42 3.2 °C 2.2 °C 1006.3 hPa NW 6.4 km/h 6.4 km/h 93% 0 mm 0 W/m2
17:48 3.1 °C 1.9 °C 1006 hPa NW 6.4 km/h 11.3 km/h 92% 0 mm 0 W/m2
17:56 2.9 °C 1.9 °C 1006.3 hPa WNW 6.4 km/h 6.4 km/h 93% 0 mm 0 W/m2
18:02 2.7 °C 1.7 °C 1006.7 hPa NW 3.2 km/h 8 km/h 93% 0 mm 0 W/m2
18:09 2.5 °C 1.5 °C 1007 hPa WNW 6.4 km/h 6.4 km/h 93% 0 mm 0 W/m2
18:16 2.3 °C 1.2 °C 1007 hPa WNW 6.4 km/h 6.4 km/h 92% 0 mm 0 W/m2
18:22 2.1 °C 0.9 °C 1007.3 hPa NW 8 km/h 17.7 km/h 92% 0 mm 0 W/m2
18:28 1.9 °C 0.7 °C 1007.3 hPa NW 8 km/h 8 km/h 92% 0 mm 0 W/m2
18:36 1.8 °C 0.6 °C 1007.3 hPa NNW 6.4 km/h 6.4 km/h 92% 0 mm 0 W/m2
18:52 1.4 °C 0.2 °C 1007 hPa NW 6.4 km/h 8 km/h 92% 0 mm 0 W/m2
18:58 1.2 °C 0 °C 1007.7 hPa NW 8 km/h 14.5 km/h 92% 0 mm 0 W/m2
19:04 1.1 °C -0.1 °C 1007.7 hPa NNW 8 km/h 9.7 km/h 92% 0 mm 0 W/m2
19:09 0.9 °C -0.2 °C 1007.7 hPa NW 6.4 km/h 6.4 km/h 92% 0 mm 0 W/m2
19:16 0.8 °C -0.3 °C 1007.7 hPa NW 4.8 km/h 6.4 km/h 92% 0 mm 0 W/m2
19:22 0.7 °C -0.5 °C 1007.7 hPa NNW 4.8 km/h 11.3 km/h 92% 0 mm 0 W/m2
19:28 0.4 °C -0.7 °C 1007.7 hPa NNE 6.4 km/h 11.3 km/h 92% 0 mm 0 W/m2
19:43 0.1 °C -1.1 °C 1008 hPa NW 8 km/h 12.9 km/h 92% 0 mm 0 W/m2
19:52 -0.2 °C -1.4 °C 1008 hPa NNW 8 km/h 12.9 km/h 92% 0 mm 0 W/m2
19:58 -0.3 °C -1.5 °C 1008.4 hPa NNW 8 km/h 12.9 km/h 92% 0 mm 0 W/m2
20:05 -0.7 °C -1.8 °C 1008.7 hPa NW 8 km/h 22.5 km/h 92% 0 mm 0 W/m2
20:12 -0.8 °C -1.9 °C 1008.7 hPa NW 8 km/h 12.9 km/h 92% 0 mm 0 W/m2
20:18 -0.9 °C -2.1 °C 1008.7 hPa NW 8 km/h 14.5 km/h 92% 0 mm 0 W/m2
20:24 -1.3 °C -2.4 °C 1008.7 hPa NNW 9.7 km/h 12.9 km/h 92% 0 mm 0 W/m2
20:29 -1.7 °C -2.8 °C 1009.4 hPa North 11.3 km/h 12.9 km/h 92% 0 mm 0 W/m2
20:36 -1.8 °C -2.9 °C 1009 hPa NNW 9.7 km/h 12.9 km/h 92% 0 mm 0 W/m2
20:42 -2 °C -3.1 °C 1009.4 hPa NNW 11.3 km/h 11.3 km/h 92% 0 mm 0 W/m2
20:48 -2.2 °C -3.3 °C 1009 hPa NW 9.7 km/h 11.3 km/h 92% 0 mm 0 W/m2
20:53 -2.3 °C -3.4 °C 1009 hPa NW 8 km/h 11.3 km/h 92% 0 mm 0 W/m2
21:00 -2.6 °C -3.7 °C 1009.4 hPa NNW 9.7 km/h 16.1 km/h 92% 0 mm 0 W/m2
21:06 -2.8 °C -3.9 °C 1009.4 hPa NW 9.7 km/h 16.1 km/h 92% 0 mm 0 W/m2
21:24 -4.2 °C -5.4 °C 1009.7 hPa WNW 11.3 km/h 14.5 km/h 91% 0 mm 0 W/m2
21:30 -4.5 °C -5.7 °C 1009.4 hPa NNW 12.9 km/h 12.9 km/h 91% 0 mm 0 W/m2
21:39 -4.8 °C -6.1 °C 1009.7 hPa North 12.9 km/h 14.5 km/h 91% 0 mm 0 W/m2
21:45 -5.1 °C -6.3 °C 1009.7 hPa NNW 11.3 km/h 19.3 km/h 91% 0 mm 0 W/m2
21:52 -5.3 °C -6.6 °C 1009.7 hPa NNW 11.3 km/h 17.7 km/h 91% 0 mm 0 W/m2
21:58 -5.4 °C -6.7 °C 1010 hPa NNW 9.7 km/h 17.7 km/h 91% 0 mm 0 W/m2
22:03 -5.6 °C -6.8 °C 1009.7 hPa NW 9.7 km/h 16.1 km/h 91% 0 mm 0 W/m2
22:09 -5.8 °C -7 °C 1009.4 hPa NW 9.7 km/h 9.7 km/h 91% 0 mm 0 W/m2
22:16 -5.9 °C -7.2 °C 1009 hPa NW 9.7 km/h 14.5 km/h 91% 0 mm 0 W/m2
22:28 -6.2 °C -7.4 °C 1008.7 hPa NNE 9.7 km/h 16.1 km/h 91% 0 mm 0 W/m2
22:34 -6.3 °C -7.6 °C 1008.4 hPa WNW 9.7 km/h 16.1 km/h 91% 0 mm 0 W/m2
22:40 -6.5 °C -7.7 °C 1008.4 hPa NW 11.3 km/h 11.3 km/h 91% 0 mm 0 W/m2
22:45 -6.5 °C -7.7 °C 1008.7 hPa NNW 9.7 km/h 11.3 km/h 91% 0 mm 0 W/m2
22:52 -6.6 °C -7.8 °C 1008.7 hPa NW 6.4 km/h 8 km/h 91% 0 mm 0 W/m2
22:58 -6.6 °C -7.8 °C 1009 hPa NW 6.4 km/h 8 km/h 91% 0 mm 0 W/m2
23:04 -6.7 °C -7.9 °C 1009.4 hPa WSW 8 km/h 14.5 km/h 91% 0 mm 0 W/m2
23:10 -7 °C -8.2 °C 1009 hPa NNW 8 km/h 8 km/h 91% 0 mm 0 W/m2
23:15 -7.2 °C -8.4 °C 1009 hPa NNW 8 km/h 9.7 km/h 91% 0 mm 0 W/m2
23:22 -7.3 °C -8.5 °C 1009 hPa NW 9.7 km/h 9.7 km/h 91% 0 mm 0 W/m2
23:34 -7.4 °C -8.7 °C 1009.4 hPa NNW 9.7 km/h 12.9 km/h 91% 0 mm 0 W/m2
23:39 -7.6 °C -8.8 °C 1009.4 hPa NNW 9.7 km/h 14.5 km/h 91% 0 mm 0 W/m2
23:52 -7.9 °C -9.1 °C 1009 hPa NW 8 km/h 9.7 km/h 91% 0 mm 0 W/m2
23:58 -8 °C -9.2 °C 1008.7 hPa North 9.7 km/h 14.5 km/h 91% 0 mm 0 W/m2
Country Meadow, Clay, NY, USA
Compliments of Weather Underground - 2 mb